Time,TemperatureF,DewpointF,PressureIn,WindDirection,WindDirectionDegrees,WindSpeedMPH,WindSpeedGustMPH,Humidity,HourlyPrecipIn,Conditions,Clouds,dailyrainin,SoftwareType,DateUTC
2013-04-10 00:00:00,55.0,22.5,29.94,North,351,0.0,0.0,28,0.00,,---,0.00,VWS V14.01,2013-04-10 04:00:00,
2013-04-10 00:05:00,54.7,22.2,29.91,North,351,0.0,0.0,28,0.00,,---,0.00,VWS V14.01,2013-04-10 04:05:00,
2013-04-10 00:10:00,54.5,22.9,29.91,North,351,0.0,0.0,29,0.00,,---,0.00,VWS V14.01,2013-04-10 04:10:00,
2013-04-10 00:16:00,55.0,22.5,29.91,North,351,0.0,0.0,28,0.00,,---,0.00,VWS V14.01,2013-04-10 04:16:00,
2013-04-10 00:21:00,55.4,22.0,29.91,North,351,0.0,0.0,27,0.00,,---,0.00,VWS V14.01,2013-04-10 04:21:00,
2013-04-10 00:26:00,55.4,22.0,29.91,North,351,2.7,3.6,27,0.00,,---,0.00,VWS V14.01,2013-04-10 04:26:00,
2013-04-10 00:31:00,55.4,22.0,29.91,North,351,0.0,0.0,27,0.00,,---,0.00,VWS V14.01,2013-04-10 04:31:00,
2013-04-10 00:36:00,55.6,22.1,29.91,North,351,0.0,0.0,27,0.00,,---,0.00,VWS V14.01,2013-04-10 04:36:00,
2013-04-10 00:41:00,55.4,22.0,29.91,North,351,0.0,0.0,27,0.00,,---,0.00,VWS V14.01,2013-04-10 04:41:00,
2013-04-10 00:47:00,55.4,21.1,29.91,North,351,2.7,3.1,26,0.00,,---,0.00,VWS V14.01,2013-04-10 04:47:00,
2013-04-10 00:52:00,55.2,21.8,29.91,North,351,0.0,0.0,27,0.00,,---,0.00,VWS V14.01,2013-04-10 04:52:00,
2013-04-10 00:57:00,55.2,21.8,29.91,North,351,0.0,0.0,27,0.00,,---,0.00,VWS V14.01,2013-04-10 04:57:00,
2013-04-10 01:02:00,55.0,22.5,29.91,North,351,0.0,0.0,28,0.00,,---,0.00,VWS V14.01,2013-04-10 05:02:00,
2013-04-10 01:07:00,55.0,21.7,29.91,North,351,0.0,0.0,27,0.00,,---,0.00,VWS V14.01,2013-04-10 05:07:00,
2013-04-10 01:12:00,55.0,21.7,29.91,North,351,0.0,0.0,27,0.00,,---,0.00,VWS V14.01,2013-04-10 05:12:00,
2013-04-10 01:17:00,55.0,21.7,29.91,North,351,2.7,3.6,27,0.00,,---,0.00,VWS V14.01,2013-04-10 05:17:00,
2013-04-10 01:23:00,55.2,21.8,29.91,North,351,0.0,4.0,27,0.00,,---,0.00,VWS V14.01,2013-04-10 05:23:00,
2013-04-10 01:28:00,55.8,22.3,29.91,North,351,0.0,0.0,27,0.00,,---,0.00,VWS V14.01,2013-04-10 05:28:00,
2013-04-10 01:33:00,56.3,21.9,29.91,North,351,3.6,4.0,26,0.00,,---,0.00,VWS V14.01,2013-04-10 05:33:00,
2013-04-10 01:38:00,56.7,21.3,29.88,North,351,0.0,4.5,25,0.00,,---,0.00,VWS V14.01,2013-04-10 05:38:00,
2013-04-10 01:43:00,56.7,21.3,29.88,North,351,3.1,3.6,25,0.00,,---,0.00,VWS V14.01,2013-04-10 05:43:00,
2013-04-10 01:48:00,56.8,21.4,29.88,North,351,3.1,4.0,25,0.00,,---,0.00,VWS V14.01,2013-04-10 05:48:00,
2013-04-10 01:53:00,56.5,22.0,29.85,North,351,3.1,3.6,26,0.00,,---,0.00,VWS V14.01,2013-04-10 05:53:00,
2013-04-10 01:58:00,56.3,21.9,29.85,NNW,341,5.8,6.9,26,0.00,,---,0.00,VWS V14.01,2013-04-10 05:58:00,
2013-04-10 02:03:00,56.3,21.9,29.85,NNW,329,0.0,5.4,26,0.00,,---,0.00,VWS V14.01,2013-04-10 06:03:00,
2013-04-10 02:08:00,56.5,22.0,29.85,NNW,330,5.4,5.8,26,0.00,,---,0.00,VWS V14.01,2013-04-10 06:08:00,
2013-04-10 02:13:00,56.5,22.0,29.85,SSW,203,4.0,6.3,26,0.00,,---,0.00,VWS V14.01,2013-04-10 06:13:00,
2013-04-10 02:18:00,56.7,22.2,29.85,ESE,112,6.3,7.4,26,0.00,,---,0.00,VWS V14.01,2013-04-10 06:18:00,
2013-04-10 02:23:00,57.0,21.6,29.83,East,86,0.0,5.8,25,0.00,,---,0.00,VWS V14.01,2013-04-10 06:23:00,
2013-04-10 02:28:00,57.0,21.6,29.83,East,86,0.0,3.6,25,0.00,,---,0.00,VWS V14.01,2013-04-10 06:28:00,
2013-04-10 02:33:00,56.7,22.2,29.83,East,87,0.0,0.0,26,0.00,,---,0.00,VWS V14.01,2013-04-10 06:33:00,
2013-04-10 02:38:00,56.7,22.2,29.83,East,86,3.1,4.0,26,0.00,,---,0.00,VWS V14.01,2013-04-10 06:38:00,
2013-04-10 02:43:00,56.5,22.0,29.83,East,86,4.5,4.9,26,0.00,,---,0.00,VWS V14.01,2013-04-10 06:43:00,
2013-04-10 02:48:00,56.5,22.0,29.83,NNE,18,6.9,8.3,26,0.00,,---,0.00,VWS V14.01,2013-04-10 06:48:00,
2013-04-10 02:53:00,56.8,21.4,29.91,North,351,4.5,16.8,25,0.00,,---,0.00,VWS V14.01,2013-04-10 06:53:00,
2013-04-10 02:58:00,56.3,23.6,29.91,WNW,303,4.9,13.4,28,0.00,,---,0.00,VWS V14.01,2013-04-10 06:58:00,
2013-04-10 03:03:00,54.7,28.3,29.91,NE,51,9.6,21.9,36,0.00,,---,0.00,VWS V14.01,2013-04-10 07:03:00,
2013-04-10 03:08:00,53.4,30.3,29.94,NE,35,0.0,10.1,41,0.00,,---,0.00,VWS V14.01,2013-04-10 07:08:00,
2013-04-10 03:13:00,52.5,33.4,29.94,NE,35,4.0,9.2,48,0.00,,---,0.00,VWS V14.01,2013-04-10 07:13:00,
2013-04-10 03:18:00,52.2,33.6,29.94,NNE,27,0.0,5.8,49,0.04,,---,0.04,VWS V14.01,2013-04-10 07:18:00,
2013-04-10 03:23:00,51.8,33.8,29.91,NNE,28,0.0,4.5,50,0.04,,---,0.04,VWS V14.01,2013-04-10 07:23:00,
2013-04-10 03:28:00,51.6,35.5,29.91,NE,36,0.0,4.5,54,0.04,,---,0.04,VWS V14.01,2013-04-10 07:28:00,
2013-04-10 03:33:00,51.4,35.8,29.91,NE,36,2.7,3.6,55,0.04,,---,0.04,VWS V14.01,2013-04-10 07:33:00,
2013-04-10 03:38:00,51.3,37.0,29.91,NE,36,3.6,4.5,58,0.04,,---,0.04,VWS V14.01,2013-04-10 07:38:00,
2013-04-10 03:43:00,51.3,37.4,29.91,NE,36,3.1,4.0,59,0.04,,---,0.04,VWS V14.01,2013-04-10 07:43:00,
2013-04-10 03:48:00,51.1,38.9,29.91,NE,37,2.7,4.0,63,0.04,,---,0.04,VWS V14.01,2013-04-10 07:48:00,
2013-04-10 03:53:00,50.9,39.2,29.91,NE,37,3.6,4.5,64,0.04,,---,0.04,VWS V14.01,2013-04-10 07:53:00,
2013-04-10 03:58:00,50.9,40.0,29.91,NE,37,2.7,4.0,66,0.04,,---,0.04,VWS V14.01,2013-04-10 07:58:00,
2013-04-10 04:03:00,50.7,39.8,29.91,NE,37,3.6,3.6,66,0.04,,---,0.04,VWS V14.01,2013-04-10 08:03:00,
2013-04-10 04:08:00,50.5,40.0,29.88,NE,37,0.0,3.6,67,0.04,,---,0.04,VWS V14.01,2013-04-10 08:08:00,
2013-04-10 04:13:00,50.5,40.0,29.88,NE,37,0.0,3.1,67,0.04,,---,0.04,VWS V14.01,2013-04-10 08:13:00,
2013-04-10 04:19:00,50.5,40.4,29.88,NE,37,0.0,0.0,68,0.04,,---,0.04,VWS V14.01,2013-04-10 08:19:00,
2013-04-10 04:24:00,50.7,40.6,29.88,NE,37,0.0,0.0,68,0.00,,---,0.04,VWS V14.01,2013-04-10 08:24:00,
2013-04-10 04:29:00,50.5,40.4,29.88,NE,37,0.0,0.0,68,0.00,,---,0.04,VWS V14.01,2013-04-10 08:29:00,
2013-04-10 04:34:00,50.7,40.6,29.88,NE,37,0.0,0.0,68,0.00,,---,0.04,VWS V14.01,2013-04-10 08:34:00,
2013-04-10 04:39:00,50.7,40.6,29.85,NE,37,0.0,4.0,68,0.00,,---,0.04,VWS V14.01,2013-04-10 08:39:00,
2013-04-10 04:44:00,50.5,40.4,29.85,NE,37,0.0,4.0,68,0.00,,---,0.04,VWS V14.01,2013-04-10 08:44:00,
2013-04-10 04:49:00,50.5,40.4,29.85,NE,37,2.7,3.1,68,0.00,,---,0.04,VWS V14.01,2013-04-10 08:49:00,
2013-04-10 04:54:00,50.4,40.2,29.85,NE,37,0.0,3.6,68,0.00,,---,0.04,VWS V14.01,2013-04-10 08:54:00,
2013-04-10 04:59:00,50.2,40.4,29.85,NE,37,0.0,3.1,69,0.00,,---,0.04,VWS V14.01,2013-04-10 08:59:00,
2013-04-10 05:04:00,50.2,40.4,29.85,NE,37,0.0,3.1,69,0.00,,---,0.04,VWS V14.01,2013-04-10 09:04:00,
2013-04-10 05:09:00,50.2,40.4,29.88,NE,37,0.0,3.6,69,0.00,,---,0.04,VWS V14.01,2013-04-10 09:09:00,
2013-04-10 05:14:00,50.2,40.0,29.88,NE,37,0.0,3.1,68,0.00,,---,0.04,VWS V14.01,2013-04-10 09:14:00,
2013-04-10 05:19:00,50.2,40.0,29.88,NE,37,0.0,2.7,68,0.00,,---,0.04,VWS V14.01,2013-04-10 09:19:00,
2013-04-10 05:24:00,50.0,39.9,29.88,NE,37,0.0,3.1,68,0.00,,---,0.04,VWS V14.01,2013-04-10 09:24:00,
2013-04-10 05:29:00,50.0,39.9,29.88,NE,37,0.0,0.0,68,0.00,,---,0.04,VWS V14.01,2013-04-10 09:29:00,
2013-04-10 05:34:00,50.2,40.0,29.88,NE,37,0.0,0.0,68,0.00,,---,0.04,VWS V14.01,2013-04-10 09:34:00,
2013-04-10 05:39:00,50.2,40.0,29.88,NE,36,0.0,0.0,68,0.00,,---,0.04,VWS V14.01,2013-04-10 09:39:00,
2013-04-10 05:44:00,50.2,40.0,29.88,NE,37,0.0,0.0,68,0.00,,---,0.04,VWS V14.01,2013-04-10 09:44:00,
2013-04-10 05:49:00,50.0,39.9,29.88,NE,37,2.7,3.1,68,0.00,,---,0.04,VWS V14.01,2013-04-10 09:49:00,
2013-04-10 05:54:00,50.0,39.9,29.91,NE,37,0.0,3.1,68,0.00,,---,0.04,VWS V14.01,2013-04-10 09:54:00,
2013-04-10 05:59:00,50.0,39.9,29.91,NE,37,0.0,2.7,68,0.00,,---,0.04,VWS V14.01,2013-04-10 09:59:00,
2013-04-10 06:04:00,50.0,39.9,29.91,NE,37,0.0,0.0,68,0.00,,---,0.04,VWS V14.01,2013-04-10 10:04:00,
2013-04-10 06:09:00,49.8,39.7,29.91,NE,37,0.0,0.0,68,0.00,,---,0.04,VWS V14.01,2013-04-10 10:09:00,
2013-04-10 06:14:00,49.8,40.1,29.91,NE,37,3.1,3.1,69,0.00,,---,0.04,VWS V14.01,2013-04-10 10:14:00,
2013-04-10 06:19:00,49.6,40.3,29.91,NE,37,0.0,3.6,70,0.00,,---,0.04,VWS V14.01,2013-04-10 10:19:00,
2013-04-10 06:24:00,49.6,40.3,29.88,NE,37,0.0,2.7,70,0.00,,---,0.04,VWS V14.01,2013-04-10 10:24:00,
2013-04-10 06:29:00,49.6,40.6,29.88,NE,37,0.0,0.0,71,0.00,,---,0.04,VWS V14.01,2013-04-10 10:29:00,
2013-04-10 06:34:00,49.6,40.6,29.88,NE,37,0.0,0.0,71,0.00,,---,0.04,VWS V14.01,2013-04-10 10:34:00,
2013-04-10 06:39:00,49.5,40.5,29.91,NE,37,0.0,0.0,71,0.00,,---,0.04,VWS V14.01,2013-04-10 10:39:00,
2013-04-10 06:44:00,49.5,40.5,29.91,NE,37,0.0,0.0,71,0.00,,---,0.04,VWS V14.01,2013-04-10 10:44:00,
2013-04-10 06:49:00,49.3,40.3,29.91,NE,37,0.0,0.0,71,0.00,,---,0.04,VWS V14.01,2013-04-10 10:49:00,
2013-04-10 06:54:00,49.3,40.3,29.91,NE,37,0.0,0.0,71,0.00,,---,0.04,VWS V14.01,2013-04-10 10:54:00,
2013-04-10 06:59:00,49.3,40.3,29.91,NE,37,0.0,0.0,71,0.00,,---,0.04,VWS V14.01,2013-04-10 10:59:00,
2013-04-10 07:04:00,49.1,40.1,29.91,NE,37,0.0,0.0,71,0.00,,---,0.04,VWS V14.01,2013-04-10 11:04:00,
2013-04-10 07:09:00,49.3,40.7,29.91,NE,37,0.0,0.0,72,0.00,,---,0.04,VWS V14.01,2013-04-10 11:09:00,
2013-04-10 07:14:00,49.5,40.8,29.91,NE,37,0.0,0.0,72,0.00,,---,0.04,VWS V14.01,2013-04-10 11:14:00,
2013-04-10 07:19:00,50.0,41.3,29.91,NE,37,0.0,0.0,72,0.00,,---,0.04,VWS V14.01,2013-04-10 11:19:00,
2013-04-10 07:24:00,50.4,42.0,29.91,NE,37,0.0,2.7,73,0.00,,---,0.04,VWS V14.01,2013-04-10 11:24:00,
2013-04-10 07:29:00,50.7,42.4,29.91,NE,37,0.0,3.6,73,0.00,,---,0.04,VWS V14.01,2013-04-10 11:29:00,
2013-04-10 07:34:00,51.4,43.1,29.91,NE,37,2.7,3.1,73,0.00,,---,0.04,VWS V14.01,2013-04-10 11:34:00,
2013-04-10 07:39:00,51.4,42.7,29.94,NE,37,3.1,3.6,72,0.00,,---,0.04,VWS V14.01,2013-04-10 11:39:00,
2013-04-10 07:44:00,51.8,43.1,29.94,NE,37,0.0,3.6,72,0.00,,---,0.04,VWS V14.01,2013-04-10 11:44:00,
2013-04-10 07:49:00,52.0,43.2,29.94,NE,37,0.0,2.7,72,0.00,,---,0.04,VWS V14.01,2013-04-10 11:49:00,
2013-04-10 07:54:00,52.0,43.2,29.94,NE,37,0.0,0.0,72,0.00,,---,0.04,VWS V14.01,2013-04-10 11:54:00,
2013-04-10 07:59:00,52.3,43.6,29.94,NE,37,0.0,3.6,72,0.00,,---,0.04,VWS V14.01,2013-04-10 11:59:00,
2013-04-10 08:04:00,52.2,43.1,29.94,NE,37,0.0,3.6,71,0.00,,---,0.04,VWS V14.01,2013-04-10 12:04:00,
2013-04-10 08:09:00,52.7,43.6,29.94,NE,35,3.6,4.9,71,0.00,,---,0.04,VWS V14.01,2013-04-10 12:09:00,
2013-04-10 08:14:00,52.9,43.8,29.94,NE,35,2.7,3.6,71,0.00,,---,0.04,VWS V14.01,2013-04-10 12:14:00,
2013-04-10 08:19:00,52.3,42.1,29.94,NNE,24,0.0,6.7,68,0.00,,---,0.04,VWS V14.01,2013-04-10 12:19:00,
2013-04-10 08:24:00,52.3,41.7,29.94,NNE,22,3.1,5.8,67,0.00,,---,0.04,VWS V14.01,2013-04-10 12:24:00,
2013-04-10 08:29:00,52.7,42.1,29.94,NNE,22,3.1,3.6,67,0.00,,---,0.04,VWS V14.01,2013-04-10 12:29:00,
2013-04-10 08:34:00,52.7,41.3,29.94,NNE,22,3.1,4.5,65,0.00,,---,0.04,VWS V14.01,2013-04-10 12:34:00,
2013-04-10 08:39:00,53.1,41.2,29.94,NNE,22,2.7,3.1,64,0.00,,---,0.04,VWS V14.01,2013-04-10 12:39:00,
2013-04-10 08:44:00,53.8,42.3,29.94,NNE,22,0.0,2.7,65,0.00,,---,0.04,VWS V14.01,2013-04-10 12:44:00,
2013-04-10 08:49:00,54.1,42.2,29.94,NNE,22,3.1,4.0,64,0.00,,---,0.04,VWS V14.01,2013-04-10 12:49:00,
2013-04-10 08:54:00,54.7,42.3,29.94,NNE,22,0.0,3.1,63,0.00,,---,0.04,VWS V14.01,2013-04-10 12:54:00,
2013-04-10 08:59:00,54.9,41.7,29.94,NNE,22,0.0,3.1,61,0.00,,---,0.04,VWS V14.01,2013-04-10 12:59:00,
2013-04-10 09:04:00,55.4,41.8,29.94,NNE,21,3.1,4.5,60,0.00,,---,0.04,VWS V14.01,2013-04-10 13:04:00,
2013-04-10 09:09:00,55.8,41.7,29.94,NNE,21,0.0,4.0,59,0.00,,---,0.04,VWS V14.01,2013-04-10 13:09:00,
2013-04-10 09:14:00,56.1,41.6,29.94,North,11,0.0,5.4,58,0.00,,---,0.04,VWS V14.01,2013-04-10 13:14:00,
2013-04-10 09:19:00,56.3,40.4,29.94,North,7,0.0,4.9,55,0.00,,---,0.04,VWS V14.01,2013-04-10 13:19:00,
2013-04-10 09:24:00,56.8,38.9,29.94,North,7,2.7,3.6,51,0.00,,---,0.04,VWS V14.01,2013-04-10 13:24:00,
2013-04-10 09:29:00,57.2,38.2,29.94,North,7,5.4,5.4,49,0.00,,---,0.04,VWS V14.01,2013-04-10 13:29:00,
2013-04-10 09:34:00,56.7,35.6,29.94,North,7,2.7,5.8,45,0.00,,---,0.04,VWS V14.01,2013-04-10 13:34:00,
2013-04-10 09:39:00,56.7,35.6,29.94,North,7,2.7,4.5,45,0.00,,---,0.04,VWS V14.01,2013-04-10 13:39:00,
2013-04-10 09:44:00,57.2,36.1,29.94,North,7,0.0,3.6,45,0.00,,---,0.04,VWS V14.01,2013-04-10 13:44:00,
2013-04-10 09:49:00,57.6,36.4,29.94,North,7,0.0,0.0,45,0.00,,---,0.04,VWS V14.01,2013-04-10 13:49:00,
2013-04-10 09:54:00,58.3,36.5,29.94,North,7,0.0,0.0,44,0.00,,---,0.04,VWS V14.01,2013-04-10 13:54:00,
2013-04-10 09:59:00,58.1,34.5,29.94,North,7,0.0,0.0,41,0.00,,---,0.04,VWS V14.01,2013-04-10 13:59:00,
2013-04-10 10:04:00,58.8,35.2,29.94,North,7,0.0,0.0,41,0.00,,---,0.04,VWS V14.01,2013-04-10 14:04:00,
2013-04-10 10:10:00,59.7,36.0,29.94,West,277,6.3,6.3,41,0.00,,---,0.04,VWS V14.01,2013-04-10 14:10:00,
2013-04-10 10:15:00,60.6,34.9,29.94,SW,236,4.0,5.4,38,0.00,,---,0.04,VWS V14.01,2013-04-10 14:15:00,
2013-04-10 10:20:00,60.8,34.4,29.94,West,261,3.1,3.1,37,0.00,,---,0.04,VWS V14.01,2013-04-10 14:20:00,
2013-04-10 10:25:00,61.3,34.9,29.94,West,281,0.0,0.0,37,0.00,,---,0.04,VWS V14.01,2013-04-10 14:25:00,
2013-04-10 10:30:00,62.2,35.0,29.94,WNW,293,2.7,5.4,36,0.00,,---,0.04,VWS V14.01,2013-04-10 14:30:00,
2013-04-10 10:35:00,63.1,35.1,29.94,NNW,338,0.0,2.7,35,0.00,,---,0.04,VWS V14.01,2013-04-10 14:35:00,
2013-04-10 10:40:00,64.2,36.0,29.94,NW,304,3.6,3.6,35,0.00,,---,0.04,VWS V14.01,2013-04-10 14:40:00,
2013-04-10 10:45:00,64.8,35.8,29.94,North,356,2.7,4.0,34,0.00,,---,0.04,VWS V14.01,2013-04-10 14:45:00,
2013-04-10 10:50:00,64.2,33.8,29.94,NNE,26,0.0,3.6,32,0.00,,---,0.04,VWS V14.01,2013-04-10 14:50:00,
2013-04-10 10:55:00,65.5,34.1,29.94,North,356,3.6,4.0,31,0.00,,---,0.04,VWS V14.01,2013-04-10 14:55:00,
2013-04-10 11:00:00,64.8,30.0,29.94,NE,34,5.8,6.3,27,0.00,,---,0.04,VWS V14.01,2013-04-10 15:00:00,
2013-04-10 11:05:00,63.9,31.0,29.94,NW,307,4.0,6.3,29,0.00,,---,0.04,VWS V14.01,2013-04-10 15:05:00,
2013-04-10 11:10:00,64.4,32.3,29.94,WNW,284,4.5,4.5,30,0.00,,---,0.04,VWS V14.01,2013-04-10 15:10:00,
2013-04-10 11:15:00,65.7,34.2,29.94,West,281,2.7,4.0,31,0.00,,---,0.04,VWS V14.01,2013-04-10 15:15:00,
2013-04-10 11:20:00,64.9,29.3,29.94,NNE,26,0.0,6.3,26,0.00,,---,0.04,VWS V14.01,2013-04-10 15:20:00,
2013-04-10 11:25:00,65.1,32.1,29.94,West,269,4.9,6.9,29,0.00,,---,0.04,VWS V14.01,2013-04-10 15:25:00,
2013-04-10 11:30:00,65.3,32.3,29.94,WNW,295,8.3,8.3,29,0.00,,---,0.04,VWS V14.01,2013-04-10 15:30:00,
2013-04-10 11:35:00,64.8,31.8,29.94,NW,313,4.0,6.9,29,0.00,,---,0.04,VWS V14.01,2013-04-10 15:35:00,
2013-04-10 11:40:00,63.9,30.1,29.94,NW,305,6.3,6.3,28,0.00,,---,0.04,VWS V14.01,2013-04-10 15:40:00,
2013-04-10 11:45:00,64.2,32.2,29.94,WNW,298,4.9,5.8,30,0.00,,---,0.04,VWS V14.01,2013-04-10 15:45:00,
2013-04-10 11:50:00,64.9,33.6,29.94,WNW,294,5.8,7.4,31,0.00,,---,0.04,VWS V14.01,2013-04-10 15:50:00,
2013-04-10 11:55:00,65.1,32.9,29.94,West,279,5.4,5.8,30,0.00,,---,0.04,VWS V14.01,2013-04-10 15:55:00,
2013-04-10 12:00:00,64.2,29.6,29.94,West,279,0.0,0.0,27,0.00,,---,0.04,VWS V14.01,2013-04-10 16:00:00,
2013-04-10 12:05:00,63.9,31.0,29.94,West,278,2.7,3.1,29,0.00,,---,0.04,VWS V14.01,2013-04-10 16:05:00,
2013-04-10 12:10:00,64.0,32.0,29.94,West,269,5.8,6.7,30,0.00,,---,0.04,VWS V14.01,2013-04-10 16:10:00,
2013-04-10 12:15:00,64.2,32.2,29.94,West,270,3.1,3.1,30,0.00,,---,0.04,VWS V14.01,2013-04-10 16:15:00,
2013-04-10 12:20:00,64.8,33.5,29.94,West,269,0.0,3.6,31,0.00,,---,0.04,VWS V14.01,2013-04-10 16:20:00,
2013-04-10 12:25:00,64.8,30.9,29.94,North,356,3.6,5.4,28,0.00,,---,0.04,VWS V14.01,2013-04-10 16:25:00,
2013-04-10 12:30:00,64.8,30.9,29.94,North,356,2.7,3.1,28,0.00,,---,0.04,VWS V14.01,2013-04-10 16:30:00,
2013-04-10 12:35:00,65.3,32.3,29.94,WNW,301,5.4,5.4,29,0.00,,---,0.04,VWS V14.01,2013-04-10 16:35:00,
2013-04-10 12:40:00,64.8,30.0,29.94,North,10,0.0,2.7,27,0.00,,---,0.04,VWS V14.01,2013-04-10 16:40:00,
2013-04-10 12:45:00,64.4,30.6,29.94,North,9,2.7,4.0,28,0.00,,---,0.04,VWS V14.01,2013-04-10 16:45:00,
2013-04-10 12:50:00,64.2,30.5,29.94,NE,48,4.0,5.4,28,0.00,,---,0.04,VWS V14.01,2013-04-10 16:50:00,
2013-04-10 12:55:00,64.6,32.5,29.94,West,265,5.8,6.3,30,0.00,,---,0.04,VWS V14.01,2013-04-10 16:55:00,
2013-04-10 13:00:00,65.5,33.3,29.94,WNW,292,0.0,3.1,30,0.00,,---,0.04,VWS V14.01,2013-04-10 17:00:00,
2013-04-10 13:05:00,65.8,31.0,29.94,North,351,4.0,5.4,27,0.00,,---,0.04,VWS V14.01,2013-04-10 17:05:00,
2013-04-10 13:10:00,66.6,31.6,29.94,WNW,298,2.7,4.9,27,0.00,,---,0.04,VWS V14.01,2013-04-10 17:10:00,
2013-04-10 13:15:00,66.2,29.4,29.94,NNE,19,6.9,7.8,25,0.00,,---,0.04,VWS V14.01,2013-04-10 17:15:00,
2013-04-10 13:20:00,66.2,30.3,29.94,NNE,12,0.0,4.0,26,0.00,,---,0.04,VWS V14.01,2013-04-10 17:20:00,
2013-04-10 13:25:00,67.5,29.4,29.94,NNE,22,4.5,7.8,24,0.00,,---,0.04,VWS V14.01,2013-04-10 17:25:00,
2013-04-10 13:30:00,68.0,29.9,29.94,NNE,25,4.5,4.5,24,0.00,,---,0.04,VWS V14.01,2013-04-10 17:30:00,
2013-04-10 13:35:00,68.5,29.3,29.94,NNE,24,4.5,5.4,23,0.00,,---,0.04,VWS V14.01,2013-04-10 17:35:00,
2013-04-10 13:40:00,70.0,30.5,29.94,NE,46,6.3,7.8,23,0.00,,---,0.04,VWS V14.01,2013-04-10 17:40:00,
2013-04-10 13:45:00,69.6,30.2,29.94,North,356,0.0,4.0,23,0.00,,---,0.04,VWS V14.01,2013-04-10 17:45:00,
2013-04-10 13:50:00,69.3,28.8,29.94,NNE,28,2.7,4.9,22,0.00,,---,0.04,VWS V14.01,2013-04-10 17:50:00,
2013-04-10 13:55:00,67.6,28.5,29.94,NNE,30,3.1,4.9,23,0.00,,---,0.04,VWS V14.01,2013-04-10 17:55:00,
2013-04-10 14:01:00,68.0,28.9,29.94,NNE,13,6.3,6.3,23,0.00,,---,0.04,VWS V14.01,2013-04-10 18:01:00,
2013-04-10 14:06:00,66.6,27.6,29.94,NNE,25,0.0,6.7,23,0.00,,---,0.04,VWS V14.01,2013-04-10 18:06:00,
2013-04-10 14:11:00,66.9,29.0,29.94,WNW,290,6.9,7.4,24,0.00,,---,0.04,VWS V14.01,2013-04-10 18:11:00,
2013-04-10 14:16:00,67.5,29.4,29.94,West,281,0.0,4.0,24,0.00,,---,0.04,VWS V14.01,2013-04-10 18:16:00,
2013-04-10 14:21:00,67.5,28.4,29.91,NNE,16,4.9,5.8,23,0.00,,---,0.04,VWS V14.01,2013-04-10 18:21:00,
2013-04-10 14:26:00,66.7,28.8,29.91,North,351,0.0,6.9,24,0.00,,---,0.04,VWS V14.01,2013-04-10 18:26:00,
2013-04-10 14:31:00,67.3,29.3,29.91,NNE,15,5.4,6.7,24,0.00,,---,0.04,VWS V14.01,2013-04-10 18:31:00,
2013-04-10 14:36:00,67.6,28.5,29.91,NNE,26,5.4,5.8,23,0.00,,---,0.04,VWS V14.01,2013-04-10 18:36:00,
2013-04-10 14:41:00,67.6,28.5,29.91,NE,40,3.6,7.8,23,0.00,,---,0.04,VWS V14.01,2013-04-10 18:41:00,
2013-04-10 14:46:00,67.1,28.1,29.91,NNE,19,4.0,7.4,23,0.00,,---,0.04,VWS V14.01,2013-04-10 18:46:00,
2013-04-10 14:52:00,67.6,28.5,29.91,North,3,2.7,5.4,23,0.00,,---,0.04,VWS V14.01,2013-04-10 18:52:00,
2013-04-10 14:57:00,68.2,29.0,29.91,North,4,0.0,4.5,23,0.00,,---,0.04,VWS V14.01,2013-04-10 18:57:00,
2013-04-10 15:02:00,68.4,29.1,29.91,North,356,4.5,9.6,23,0.00,,---,0.04,VWS V14.01,2013-04-10 19:02:00,
2013-04-10 15:07:00,68.5,29.3,29.91,North,356,3.1,5.4,23,0.00,,---,0.04,VWS V14.01,2013-04-10 19:07:00,
2013-04-10 15:12:00,69.1,29.8,29.91,West,268,3.1,6.9,23,0.00,,---,0.04,VWS V14.01,2013-04-10 19:12:00,
2013-04-10 15:17:00,69.1,28.7,29.91,NW,310,2.7,8.7,22,0.00,,---,0.04,VWS V14.01,2013-04-10 19:17:00,
2013-04-10 15:22:00,68.9,28.5,29.91,NNE,31,4.5,6.7,22,0.00,,---,0.04,VWS V14.01,2013-04-10 19:22:00,
2013-04-10 15:27:00,67.5,27.3,29.91,NNE,12,3.1,6.3,22,0.00,,---,0.04,VWS V14.01,2013-04-10 19:27:00,
2013-04-10 15:32:00,67.6,28.5,29.91,North,10,4.9,4.9,23,0.00,,---,0.04,VWS V14.01,2013-04-10 19:32:00,
2013-04-10 15:37:00,67.5,28.4,29.88,NNE,26,5.4,6.3,23,0.00,,---,0.04,VWS V14.01,2013-04-10 19:37:00,
2013-04-10 15:42:00,66.7,27.8,29.88,NNE,25,3.6,5.8,23,0.00,,---,0.04,VWS V14.01,2013-04-10 19:42:00,
2013-04-10 15:47:00,66.6,27.6,29.88,NNE,19,4.9,5.8,23,0.00,,---,0.04,VWS V14.01,2013-04-10 19:47:00,
2013-04-10 15:52:00,66.4,28.5,29.88,NNE,19,0.0,3.6,24,0.00,,---,0.04,VWS V14.01,2013-04-10 19:52:00,
2013-04-10 15:57:00,68.0,29.9,29.88,NNE,17,0.0,4.5,24,0.00,,---,0.04,VWS V14.01,2013-04-10 19:57:00,
2013-04-10 16:02:00,69.4,30.1,29.88,NW,307,4.5,6.7,23,0.00,,---,0.04,VWS V14.01,2013-04-10 20:02:00,
2013-04-10 16:07:00,69.8,30.4,29.88,West,270,5.4,6.3,23,0.00,,---,0.04,VWS V14.01,2013-04-10 20:07:00,
2013-04-10 16:12:00,69.8,29.3,29.88,West,268,4.5,4.5,22,0.00,,---,0.04,VWS V14.01,2013-04-10 20:12:00,
2013-04-10 16:17:00,69.6,29.1,29.88,West,265,3.1,4.0,22,0.00,,---,0.04,VWS V14.01,2013-04-10 20:17:00,
2013-04-10 16:22:00,70.9,30.2,29.85,West,259,0.0,4.9,22,0.00,,---,0.04,VWS V14.01,2013-04-10 20:22:00,
2013-04-10 16:27:00,71.1,29.2,29.85,West,260,0.0,4.0,21,0.00,,---,0.04,VWS V14.01,2013-04-10 20:27:00,
2013-04-10 16:32:00,70.5,29.9,29.85,SW,219,4.0,4.9,22,0.00,,---,0.04,VWS V14.01,2013-04-10 20:32:00,
2013-04-10 16:37:00,70.3,29.7,29.85,SW,223,3.6,6.3,22,0.00,,---,0.04,VWS V14.01,2013-04-10 20:37:00,
2013-04-10 16:42:00,70.2,29.6,29.85,SSW,197,0.0,6.3,22,0.00,,---,0.04,VWS V14.01,2013-04-10 20:42:00,
2013-04-10 16:47:00,70.9,30.2,29.85,SSW,198,3.6,4.0,22,0.00,,---,0.04,VWS V14.01,2013-04-10 20:47:00,
2013-04-10 16:52:00,71.6,29.6,29.85,SSW,198,2.7,4.0,21,0.00,,---,0.04,VWS V14.01,2013-04-10 20:52:00,
2013-04-10 16:57:00,71.8,29.8,29.85,SW,222,2.7,5.8,21,0.00,,---,0.04,VWS V14.01,2013-04-10 20:57:00,
2013-04-10 17:02:00,72.0,29.9,29.85,SW,220,5.4,8.3,21,0.00,,---,0.04,VWS V14.01,2013-04-10 21:02:00,
2013-04-10 17:07:00,72.3,30.2,29.83,SW,223,5.8,11.0,21,0.00,,---,0.04,VWS V14.01,2013-04-10 21:07:00,
2013-04-10 17:12:00,72.5,30.4,29.83,SW,234,5.4,6.7,21,0.00,,---,0.04,VWS V14.01,2013-04-10 21:12:00,
2013-04-10 17:17:00,72.5,27.9,29.83,SW,233,0.0,4.0,19,0.00,,---,0.04,VWS V14.01,2013-04-10 21:17:00,
2013-04-10 17:22:00,72.3,27.8,29.83,SW,223,6.9,8.3,19,0.00,,---,0.04,VWS V14.01,2013-04-10 21:22:00,
2013-04-10 17:27:00,71.8,27.3,29.83,SW,217,4.9,6.7,19,0.00,,---,0.04,VWS V14.01,2013-04-10 21:27:00,
2013-04-10 17:33:00,71.1,26.8,29.83,SE,132,2.7,7.4,19,0.00,,---,0.04,VWS V14.01,2013-04-10 21:33:00,
2013-04-10 17:38:00,69.8,29.3,29.83,ESE,118,7.8,9.2,22,0.00,,---,0.04,VWS V14.01,2013-04-10 21:38:00,
2013-04-10 17:43:00,68.9,28.5,29.83,SSW,209,3.6,7.4,22,0.00,,---,0.04,VWS V14.01,2013-04-10 21:43:00,
2013-04-10 17:48:00,68.5,28.2,29.83,SW,222,3.6,8.3,22,0.00,,---,0.04,VWS V14.01,2013-04-10 21:48:00,
2013-04-10 17:53:00,68.0,27.8,29.83,SSE,148,8.7,11.2,22,0.00,,---,0.04,VWS V14.01,2013-04-10 21:53:00,
2013-04-10 17:58:00,67.3,28.2,29.83,South,190,4.0,10.1,23,0.00,,---,0.04,VWS V14.01,2013-04-10 21:58:00,
2013-04-10 18:03:00,66.9,27.9,29.83,SE,146,4.9,11.0,23,0.00,,---,0.04,VWS V14.01,2013-04-10 22:03:00,
2013-04-10 18:08:00,66.6,28.7,29.85,SSW,212,4.5,7.4,24,0.00,,---,0.04,VWS V14.01,2013-04-10 22:08:00,
2013-04-10 18:13:00,66.4,28.5,29.85,SSW,201,7.8,7.8,24,0.00,,---,0.04,VWS V14.01,2013-04-10 22:13:00,
2013-04-10 18:18:00,66.0,28.2,29.85,SE,124,3.6,5.4,24,0.00,,---,0.04,VWS V14.01,2013-04-10 22:18:00,
2013-04-10 18:23:00,65.1,28.5,29.85,SSE,168,3.1,10.5,25,0.00,,---,0.04,VWS V14.01,2013-04-10 22:23:00,
2013-04-10 18:28:00,64.8,28.1,29.85,SSE,156,2.7,5.4,25,0.00,,---,0.04,VWS V14.01,2013-04-10 22:28:00,
2013-04-10 18:33:00,64.6,29.0,29.85,SSE,156,4.9,5.4,26,0.00,,---,0.04,VWS V14.01,2013-04-10 22:33:00,
2013-04-10 18:38:00,64.2,28.6,29.83,SSE,165,3.1,4.9,26,0.00,,---,0.04,VWS V14.01,2013-04-10 22:38:00,
2013-04-10 18:43:00,63.9,29.3,29.83,SSE,154,3.1,6.9,27,0.00,,---,0.04,VWS V14.01,2013-04-10 22:43:00,
2013-04-10 18:48:00,63.7,30.0,29.83,ESE,107,3.1,7.8,28,0.00,,---,0.04,VWS V14.01,2013-04-10 22:48:00,
2013-04-10 18:53:00,63.5,29.8,29.83,SSW,193,4.9,5.8,28,0.00,,---,0.04,VWS V14.01,2013-04-10 22:53:00,
2013-04-10 18:58:00,63.3,30.5,29.83,South,180,4.9,11.2,29,0.00,,---,0.04,VWS V14.01,2013-04-10 22:58:00,
2013-04-10 19:03:00,63.1,31.2,29.83,SSW,211,3.1,7.8,30,0.00,,---,0.04,VWS V14.01,2013-04-10 23:03:00,
2013-04-10 19:08:00,63.1,31.2,29.83,South,189,4.5,6.3,30,0.00,,---,0.04,VWS V14.01,2013-04-10 23:08:00,
2013-04-10 19:13:00,62.8,30.9,29.83,West,267,13.0,17.7,30,0.00,,---,0.04,VWS V14.01,2013-04-10 23:13:00,
2013-04-10 19:18:00,62.2,32.8,29.83,SW,236,5.4,17.7,33,0.00,,---,0.04,VWS V14.01,2013-04-10 23:18:00,
2013-04-10 19:23:00,61.0,33.9,29.91,West,262,10.1,11.2,36,0.04,,---,0.08,VWS V14.01,2013-04-10 23:23:00,
2013-04-10 19:28:00,60.1,35.7,29.91,WSW,249,4.5,6.9,40,0.04,,---,0.08,VWS V14.01,2013-04-10 23:28:00,
2013-04-10 19:33:00,59.4,38.6,29.91,South,181,0.0,6.3,46,0.08,,---,0.12,VWS V14.01,2013-04-10 23:33:00,
2013-04-10 19:38:00,58.6,40.1,29.91,South,174,2.7,6.9,50,0.08,,---,0.12,VWS V14.01,2013-04-10 23:38:00,
2013-04-10 19:43:00,58.1,41.1,29.91,SSE,156,0.0,7.4,53,0.08,,---,0.12,VWS V14.01,2013-04-10 23:43:00,
2013-04-10 19:48:00,57.7,42.2,29.91,SSE,161,4.9,5.8,56,0.12,,---,0.16,VWS V14.01,2013-04-10 23:48:00,
2013-04-10 19:53:00,57.4,43.2,29.88,South,176,3.6,6.3,59,0.12,,---,0.16,VWS V14.01,2013-04-10 23:53:00,
2013-04-10 19:58:00,56.8,44.0,29.88,SSE,155,4.0,9.2,62,0.12,,---,0.16,VWS V14.01,2013-04-10 23:58:00,
2013-04-10 20:03:00,56.7,44.6,29.88,SSE,154,4.9,4.9,64,0.12,,---,0.16,VWS V14.01,2013-04-11 00:03:00,
2013-04-10 20:08:00,56.3,44.7,29.83,SSE,157,3.6,4.0,65,0.16,,---,0.20,VWS V14.01,2013-04-11 00:08:00,
2013-04-10 20:13:00,56.3,45.1,29.83,South,187,5.8,5.8,66,0.16,,---,0.20,VWS V14.01,2013-04-11 00:13:00,
2013-04-10 20:18:00,56.3,45.1,29.83,SSE,160,2.7,7.4,66,0.16,,---,0.20,VWS V14.01,2013-04-11 00:18:00,
2013-04-10 20:23:00,56.1,44.9,29.83,SSE,160,0.0,2.7,66,0.12,,---,0.20,VWS V14.01,2013-04-11 00:23:00,
2013-04-10 20:28:00,56.1,44.5,29.83,SSE,160,0.0,0.0,65,0.12,,---,0.20,VWS V14.01,2013-04-11 00:28:00,
2013-04-10 20:33:00,55.9,44.4,29.83,SSE,160,0.0,3.1,65,0.12,,---,0.20,VWS V14.01,2013-04-11 00:33:00,
2013-04-10 20:38:00,55.8,44.2,29.83,SSE,160,0.0,3.6,65,0.08,,---,0.20,VWS V14.01,2013-04-11 00:38:00,
2013-04-10 20:43:00,55.8,44.2,29.83,SSE,160,3.1,3.6,65,0.08,,---,0.20,VWS V14.01,2013-04-11 00:43:00,
2013-04-10 20:48:00,55.6,44.0,29.83,SSE,160,2.7,3.6,65,0.08,,---,0.20,VWS V14.01,2013-04-11 00:48:00,
2013-04-10 20:53:00,55.4,44.2,29.85,SSE,160,0.0,3.1,66,0.04,,---,0.20,VWS V14.01,2013-04-11 00:53:00,
2013-04-10 20:58:00,55.2,44.5,29.85,SSE,160,0.0,0.0,67,0.04,,---,0.20,VWS V14.01,2013-04-11 00:58:00,
2013-04-10 21:03:00,55.2,44.9,29.85,SSE,160,0.0,0.0,68,0.04,,---,0.20,VWS V14.01,2013-04-11 01:03:00,
2013-04-10 21:08:00,55.0,45.1,29.83,SSE,160,0.0,2.7,69,0.00,,---,0.20,VWS V14.01,2013-04-11 01:08:00,
2013-04-10 21:13:00,55.0,45.5,29.83,SSE,160,0.0,4.0,70,0.00,,---,0.20,VWS V14.01,2013-04-11 01:13:00,
2013-04-10 21:18:00,54.9,45.3,29.83,SSE,160,3.6,4.9,70,0.00,,---,0.20,VWS V14.01,2013-04-11 01:18:00,
2013-04-10 21:23:00,54.9,45.3,29.83,SSE,160,2.7,3.1,70,0.00,,---,0.20,VWS V14.01,2013-04-11 01:23:00,
2013-04-10 21:28:00,54.9,45.3,29.83,SSE,160,0.0,3.1,70,0.00,,---,0.20,VWS V14.01,2013-04-11 01:28:00,
2013-04-10 21:33:00,54.9,45.3,29.83,SSE,160,0.0,2.7,70,0.00,,---,0.20,VWS V14.01,2013-04-11 01:33:00,
2013-04-10 21:38:00,54.9,45.3,29.83,SSE,160,2.7,3.6,70,0.00,,---,0.20,VWS V14.01,2013-04-11 01:38:00,
2013-04-10 21:44:00,54.9,45.3,29.83,SSE,160,0.0,0.0,70,0.00,,---,0.20,VWS V14.01,2013-04-11 01:44:00,
2013-04-10 21:49:00,54.9,45.3,29.83,SSE,160,0.0,4.0,70,0.00,,---,0.20,VWS V14.01,2013-04-11 01:49:00,
2013-04-10 21:54:00,54.9,45.3,29.85,SW,225,0.0,6.9,70,0.00,,---,0.20,VWS V14.01,2013-04-11 01:54:00,
2013-04-10 21:59:00,54.9,45.3,29.85,SW,225,0.0,2.7,70,0.00,,---,0.20,VWS V14.01,2013-04-11 01:59:00,
2013-04-10 22:04:00,54.9,45.3,29.85,SW,225,2.7,3.6,70,0.00,,---,0.20,VWS V14.01,2013-04-11 02:04:00,
2013-04-10 22:09:00,54.9,45.3,29.85,SW,225,0.0,0.0,70,0.00,,---,0.20,VWS V14.01,2013-04-11 02:09:00,
2013-04-10 22:14:00,54.7,45.1,29.85,SW,225,0.0,0.0,70,0.00,,---,0.20,VWS V14.01,2013-04-11 02:14:00,
2013-04-10 22:19:00,54.5,44.5,29.85,SW,225,0.0,2.7,69,0.00,,---,0.20,VWS V14.01,2013-04-11 02:19:00,
2013-04-10 22:24:00,54.7,45.1,29.88,SW,225,0.0,0.0,70,0.00,,---,0.20,VWS V14.01,2013-04-11 02:24:00,
2013-04-10 22:29:00,54.7,45.1,29.88,SW,225,3.1,3.6,70,0.00,,---,0.20,VWS V14.01,2013-04-11 02:29:00,
2013-04-10 22:34:00,54.9,45.7,29.88,SW,225,0.0,3.1,71,0.00,,---,0.20,VWS V14.01,2013-04-11 02:34:00,
2013-04-10 22:39:00,54.7,45.8,29.85,SW,225,2.7,3.6,72,0.00,,---,0.20,VWS V14.01,2013-04-11 02:39:00,
2013-04-10 22:44:00,54.7,45.8,29.85,SW,225,0.0,3.1,72,0.00,,---,0.20,VWS V14.01,2013-04-11 02:44:00,
2013-04-10 22:49:00,54.7,45.8,29.85,SW,225,0.0,3.6,72,0.00,,---,0.20,VWS V14.01,2013-04-11 02:49:00,
2013-04-10 22:54:00,54.5,46.0,29.85,SW,225,3.6,4.0,73,0.00,,---,0.20,VWS V14.01,2013-04-11 02:54:00,
2013-04-10 22:59:00,54.5,46.0,29.85,SW,225,3.1,4.9,73,0.00,,---,0.20,VWS V14.01,2013-04-11 02:59:00,
2013-04-10 23:04:00,54.5,46.0,29.85,SW,225,2.7,3.6,73,0.00,,---,0.20,VWS V14.01,2013-04-11 03:04:00,
2013-04-10 23:09:00,54.5,46.0,29.85,SW,225,2.7,5.4,73,0.00,,---,0.20,VWS V14.01,2013-04-11 03:09:00,
2013-04-10 23:14:00,54.5,46.0,29.85,SW,225,3.6,4.5,73,0.00,,---,0.20,VWS V14.01,2013-04-11 03:14:00,
2013-04-10 23:19:00,54.5,46.0,29.85,SW,225,0.0,4.0,73,0.00,,---,0.20,VWS V14.01,2013-04-11 03:19:00,
2013-04-10 23:24:00,54.3,46.2,29.85,SW,225,2.7,5.4,74,0.00,,---,0.20,VWS V14.01,2013-04-11 03:24:00,
2013-04-10 23:29:00,54.3,46.2,29.85,SW,225,0.0,4.9,74,0.00,,---,0.20,VWS V14.01,2013-04-11 03:29:00,
2013-04-10 23:34:00,54.3,46.2,29.85,SW,222,4.5,5.4,74,0.00,,---,0.20,VWS V14.01,2013-04-11 03:34:00,
2013-04-10 23:39:00,54.3,46.6,29.83,SW,223,4.5,4.5,75,0.00,,---,0.20,VWS V14.01,2013-04-11 03:39:00,
2013-04-10 23:44:00,54.3,46.6,29.83,SW,232,2.7,6.7,75,0.00,,---,0.20,VWS V14.01,2013-04-11 03:44:00,
2013-04-10 23:49:00,54.3,46.6,29.83,SW,232,4.0,5.4,75,0.00,,---,0.20,VWS V14.01,2013-04-11 03:49:00,
2013-04-10 23:54:00,54.5,46.8,29.83,SW,232,0.0,2.7,75,0.00,,---,0.20,VWS V14.01,2013-04-11 03:54:00,
2013-04-10 23:59:00,54.5,46.8,29.83,SW,233,6.7,6.7,75,0.00,,---,0.20,VWS V14.01,2013-04-11 03:59:00,